createdAt,value
2019-01-22T00:00:14.758Z,39.80
2019-01-22T00:02:40.882Z,42.80
2019-01-22T00:05:07.242Z,38.58
2019-01-22T00:07:33.544Z,42.75
2019-01-22T00:09:59.789Z,42.35
2019-01-22T00:12:25.947Z,39.42
2019-01-22T00:14:52.232Z,35.58
2019-01-22T00:17:18.506Z,40.00
2019-01-22T00:19:44.690Z,42.28
2019-01-22T00:22:10.946Z,41.75
2019-01-22T00:24:37.140Z,39.75
2019-01-22T00:27:03.334Z,42.30
2019-01-22T00:29:29.527Z,44.42
2019-01-22T00:31:55.711Z,33.75
2019-01-22T00:34:21.965Z,45.67
2019-01-22T00:36:48.292Z,39.10
2019-01-22T00:39:14.588Z,42.03
2019-01-22T00:41:40.724Z,44.88
2019-01-22T00:44:06.959Z,39.92
2019-01-22T00:46:33.182Z,44.13
2019-01-22T00:48:59.250Z,40.42
2019-01-22T00:51:25.478Z,47.65
2019-01-22T00:53:51.751Z,45.03
2019-01-22T00:56:18.044Z,53.22
2019-01-22T00:58:44.233Z,33.80
2019-01-22T01:01:10.402Z,39.40
2019-01-22T01:03:36.576Z,43.65
2019-01-22T01:06:02.745Z,44.90
2019-01-22T01:08:28.882Z,39.03
2019-01-22T01:10:55.095Z,40.20
2019-01-22T01:13:21.320Z,40.20
2019-01-22T01:15:47.605Z,42.53
2019-01-22T01:18:13.781Z,41.33
2019-01-22T01:20:39.928Z,40.53
2019-01-22T01:23:06.214Z,44.85
2019-01-22T01:25:32.432Z,42.55
2019-01-22T01:27:58.612Z,42.30
2019-01-22T01:30:24.770Z,51.63
2019-01-22T01:32:50.882Z,45.97
2019-01-22T01:35:17.102Z,43.83
2019-01-22T01:37:43.255Z,42.40
2019-01-22T01:40:09.413Z,41.88
2019-01-22T01:42:35.629Z,37.58
2019-01-22T01:45:02.046Z,41.50
2019-01-22T01:47:28.281Z,40.75
2019-01-22T01:49:54.405Z,42.25
2019-01-22T01:52:20.608Z,46.00
2019-01-22T01:54:46.882Z,41.80
2019-01-22T01:57:13.069Z,49.38
2019-01-22T01:59:39.270Z,45.05
2019-01-22T02:02:05.521Z,41.22
2019-01-22T02:04:31.835Z,46.40
2019-01-22T02:06:57.969Z,43.47
2019-01-22T02:09:24.284Z,42.33
2019-01-22T02:11:50.517Z,51.05
2019-01-22T02:14:16.698Z,47.58
2019-01-22T02:16:43.911Z,45.65
2019-01-22T02:19:14.009Z,42.88
2019-01-22T02:21:51.106Z,38.55
2019-01-22T02:24:18.152Z,40.12
2019-01-22T02:27:00.111Z,45.12
2019-01-22T02:29:27.286Z,47.97
2019-01-22T02:32:23.483Z,47.03
2019-01-22T02:35:04.673Z,45.83
2019-01-22T02:37:46.510Z,44.45
2019-01-22T02:40:21.454Z,40.40
2019-01-22T02:42:49.627Z,43.75
2019-01-22T02:45:16.622Z,47.75
2019-01-22T02:47:42.755Z,46.35
2019-01-22T02:50:28.877Z,53.28
2019-01-22T02:53:10.849Z,51.58
2019-01-22T02:55:38.029Z,47.38
2019-01-22T02:58:26.117Z,44.72
2019-01-22T03:00:52.312Z,49.72
2019-01-22T03:03:41.468Z,51.75
2019-01-22T03:06:13.746Z,44.13
2019-01-22T03:08:47.949Z,41.35
2019-01-22T03:11:16.707Z,50.45
2019-01-22T03:14:05.098Z,48.13
2019-01-22T03:16:35.217Z,50.10
2019-01-22T03:19:17.390Z,43.40
2019-01-22T03:22:06.480Z,41.65
2019-01-22T03:24:34.535Z,54.70
2019-01-22T03:27:03.537Z,53.20
2019-01-22T03:29:45.142Z,52.60
2019-01-22T03:32:16.185Z,44.90
2019-01-22T03:34:51.236Z,45.22
2019-01-22T03:37:23.454Z,44.22
2019-01-22T03:39:50.587Z,46.67
2019-01-22T03:42:20.551Z,43.53
2019-01-22T03:44:50.658Z,41.30
2019-01-22T03:47:22.913Z,50.28
2019-01-22T03:49:56.221Z,46.53
2019-01-22T03:52:39.253Z,46.42
2019-01-22T03:55:17.431Z,50.03
2019-01-22T03:57:43.662Z,47.42
2019-01-22T04:00:09.813Z,49.10
2019-01-22T04:02:36.033Z,52.53
2019-01-22T04:05:02.250Z,40.03
2019-01-22T04:07:28.745Z,57.13
2019-01-22T04:09:55.086Z,46.15
2019-01-22T04:12:21.271Z,42.85
2019-01-22T04:14:47.435Z,40.90
2019-01-22T04:17:14.298Z,45.00
2019-01-22T04:19:40.480Z,47.20
2019-01-22T04:22:06.745Z,38.88
2019-01-22T04:24:35.361Z,43.55
2019-01-22T04:27:18.353Z,43.05
2019-01-22T04:29:45.459Z,45.03
2019-01-22T04:32:11.704Z,45.20
2019-01-22T04:34:41.736Z,40.30
2019-01-22T04:37:11.786Z,42.28
2019-01-22T04:39:51.932Z,39.75
2019-01-22T04:42:35.963Z,42.90
2019-01-22T04:45:10.180Z,41.13
2019-01-22T04:47:52.181Z,45.28
2019-01-22T04:50:32.180Z,42.85
2019-01-22T04:53:14.328Z,42.83
2019-01-22T04:55:57.896Z,48.22
2019-01-22T04:58:27.870Z,45.63
2019-01-22T05:00:58.982Z,39.53
2019-01-22T05:03:28.718Z,44.00
2019-01-22T05:06:10.736Z,44.53
2019-01-22T05:08:46.828Z,45.85
2019-01-22T05:11:21.909Z,51.33
2019-01-22T05:13:49.959Z,58.63
2019-01-22T05:16:23.789Z,58.08
2019-01-22T05:19:08.537Z,47.95
2019-01-22T05:21:37.630Z,50.38
2019-01-22T05:24:20.803Z,51.53
2019-01-22T05:27:15.859Z,44.67
2019-01-22T05:29:58.085Z,46.13
2019-01-22T05:35:37.050Z,48.78
2019-01-22T05:38:08.054Z,46.45
2019-01-22T05:40:53.942Z,46.78
2019-01-22T05:43:22.175Z,45.95
2019-01-22T05:46:01.314Z,53.95
2019-01-22T05:48:28.101Z,50.20
2019-01-22T05:50:54.318Z,46.53
2019-01-22T05:53:28.649Z,56.13
2019-01-22T05:56:01.750Z,54.03
2019-01-22T05:58:43.828Z,45.65
2019-01-22T06:01:09.955Z,51.92
2019-01-22T06:03:36.898Z,53.47
2019-01-22T06:06:18.018Z,51.90
2019-01-22T06:08:48.996Z,44.95
2019-01-22T06:11:17.107Z,45.53
2019-01-22T06:13:53.243Z,45.90
2019-01-22T06:16:34.365Z,46.90
2019-01-22T06:19:01.451Z,44.83
2019-01-22T06:21:35.689Z,45.72
2019-01-22T06:24:03.758Z,48.40
2019-01-22T06:26:32.739Z,39.28
2019-01-22T06:32:14.619Z,47.85
2019-01-22T06:34:48.845Z,46.90
2019-01-22T06:37:25.739Z,49.47
2019-01-22T06:39:51.761Z,42.35
2019-01-22T06:42:22.735Z,43.78
2019-01-22T06:44:50.229Z,45.50
2019-01-22T06:47:28.505Z,48.25
2019-01-22T06:49:55.426Z,45.38
2019-01-22T06:52:38.365Z,48.58
2019-01-22T06:55:07.322Z,51.00
2019-01-22T06:57:59.555Z,46.90
2019-01-22T07:00:28.455Z,51.50
2019-01-22T07:03:10.267Z,46.75
2019-01-22T07:05:39.203Z,53.42
2019-01-22T07:08:07.764Z,53.72
2019-01-22T07:10:42.531Z,54.63
2019-01-22T07:13:13.555Z,54.10
2019-01-22T07:15:56.190Z,54.25
2019-01-22T07:18:41.035Z,74.70
2019-01-22T07:21:08.716Z,66.65
2019-01-22T07:23:43.731Z,61.40
2019-01-22T07:26:20.872Z,60.70
2019-01-22T07:28:48.819Z,65.15
2019-01-22T07:31:35.782Z,67.00
2019-01-22T07:34:13.838Z,70.80
2019-01-22T07:36:55.879Z,70.57
2019-01-22T07:39:33.871Z,66.72
2019-01-22T07:41:59.879Z,73.60
2019-01-22T07:44:30.722Z,58.08
2019-01-22T07:47:02.532Z,65.50
2019-01-22T07:49:48.530Z,83.82
2019-01-22T07:52:19.397Z,66.40
2019-01-22T07:54:53.914Z,71.78
2019-01-22T07:57:30.374Z,70.03
2019-01-22T07:59:56.394Z,62.75
2019-01-22T08:02:25.460Z,59.13
2019-01-22T08:04:54.098Z,69.40
2019-01-22T08:07:21.099Z,64.28
2019-01-22T08:10:04.888Z,66.57
2019-01-22T08:12:33.849Z,73.18
2019-01-22T08:15:06.951Z,61.63
2019-01-22T08:17:38.966Z,66.97
2019-01-22T08:20:09.807Z,70.65
2019-01-22T08:22:51.687Z,65.57
2019-01-22T08:25:24.909Z,61.53
2019-01-22T08:28:10.776Z,66.30
2019-01-22T08:30:39.695Z,61.20
2019-01-22T08:33:24.698Z,64.12
2019-01-22T08:35:56.698Z,64.53
2019-01-22T08:38:26.598Z,70.90
2019-01-22T08:41:15.737Z,60.35
2019-01-22T08:43:56.622Z,68.40
2019-01-22T08:46:35.531Z,62.80
2019-01-22T08:49:05.437Z,66.95
2019-01-22T08:51:33.369Z,65.30
2019-01-22T08:54:13.335Z,73.15
2019-01-22T08:57:07.358Z,66.18
2019-01-22T08:59:36.294Z,70.68
2019-01-22T09:02:11.323Z,95.68
2019-01-22T09:04:55.013Z,71.60
2019-01-22T09:07:26.946Z,70.30
2019-01-22T09:10:12.515Z,71.40
2019-01-22T09:12:41.186Z,67.28
2019-01-22T09:15:22.019Z,69.53
2019-01-22T09:17:52.005Z,77.05
2019-01-22T09:20:18.758Z,85.25
2019-01-22T09:23:05.768Z,65.60
2019-01-22T09:25:35.654Z,67.28
2019-01-22T09:28:19.508Z,61.60
2019-01-22T09:30:58.192Z,65.30
2019-01-22T09:33:42.073Z,57.75
2019-01-22T09:36:14.812Z,60.08
2019-01-22T09:38:40.879Z,58.92
2019-01-22T09:41:07.622Z,60.78
2019-01-22T09:43:33.660Z,64.85
2019-01-22T09:45:59.691Z,64.72
2019-01-22T09:48:25.706Z,74.47
2019-01-22T09:50:51.731Z,61.10
2019-01-22T09:53:17.743Z,69.05
2019-01-22T09:55:44.503Z,59.90
2019-01-22T09:58:10.515Z,63.17
2019-01-22T10:00:36.513Z,57.35
2019-01-22T10:03:03.308Z,60.17
2019-01-22T10:05:29.325Z,62.75
2019-01-22T10:07:55.344Z,64.55
2019-01-22T10:10:21.360Z,54.63
2019-01-22T10:12:47.403Z,54.60
2019-01-22T10:15:14.381Z,58.47
2019-01-22T10:17:40.447Z,56.25
2019-01-22T10:20:07.214Z,59.75
2019-01-22T10:22:33.221Z,57.25
2019-01-22T10:24:59.238Z,70.60
2019-01-22T10:27:25.247Z,55.65
2019-01-22T10:29:52.058Z,54.60
2019-01-22T10:32:18.074Z,57.55
2019-01-22T10:34:44.082Z,52.28
2019-01-22T10:37:10.128Z,56.30
2019-01-22T10:39:36.181Z,56.88
2019-01-22T10:42:02.928Z,57.15
2019-01-22T10:44:29.687Z,52.62
2019-01-22T10:46:55.682Z,57.40
2019-01-22T10:49:22.459Z,57.70
2019-01-22T10:51:48.509Z,50.00
2019-01-22T10:54:14.528Z,51.88
2019-01-22T10:56:40.559Z,53.50
2019-01-22T10:59:06.573Z,56.03
2019-01-22T11:01:32.599Z,58.97
2019-01-22T11:03:58.606Z,54.40
2019-01-22T11:06:24.629Z,56.60
2019-01-22T11:08:50.632Z,54.50
2019-01-22T11:11:16.642Z,56.10
2019-01-22T11:13:43.407Z,52.42
2019-01-22T11:16:09.451Z,56.83
2019-01-22T11:18:35.463Z,56.67
2019-01-22T11:21:01.491Z,57.47
2019-01-22T11:23:27.487Z,59.50
2019-01-22T11:25:54.272Z,56.05
2019-01-22T11:28:20.368Z,55.17
2019-01-22T11:30:46.476Z,60.40
2019-01-22T11:33:12.588Z,55.17
2019-01-22T11:35:38.694Z,57.72
2019-01-22T11:38:12.300Z,59.75
2019-01-22T11:40:34.921Z,48.60
2019-01-22T11:43:01.137Z,51.85
2019-01-22T11:45:27.311Z,54.17
2019-01-22T11:47:54.218Z,54.10
2019-01-22T11:50:20.302Z,58.53
2019-01-22T11:52:46.427Z,64.47
2019-01-22T11:55:12.518Z,56.37
2019-01-22T11:57:38.637Z,60.25
2019-01-22T12:00:05.703Z,59.45
2019-01-22T12:02:34.722Z,55.08
2019-01-22T12:05:00.803Z,51.95
2019-01-22T12:07:26.840Z,57.30
2019-01-22T12:09:52.856Z,55.20
2019-01-22T12:12:18.859Z,50.83
2019-01-22T12:14:44.864Z,56.73
2019-01-22T12:17:10.919Z,55.60
2019-01-22T12:19:36.928Z,50.45
2019-01-22T12:22:03.139Z,53.80
2019-01-22T12:24:29.251Z,49.90
2019-01-22T12:26:56.036Z,48.97
2019-01-22T12:29:22.068Z,52.28
2019-01-22T12:31:48.071Z,49.67
2019-01-22T12:34:14.112Z,49.30
2019-01-22T12:36:40.147Z,51.67
2019-01-22T12:39:06.211Z,45.30
2019-01-22T12:41:33.028Z,49.63
2019-01-22T12:43:59.039Z,53.13
2019-01-22T12:46:25.047Z,47.78
2019-01-22T12:48:51.060Z,51.95
2019-01-22T12:51:17.080Z,47.22
2019-01-22T12:53:45.752Z,46.90
2019-01-22T12:56:09.098Z,43.87
2019-01-22T12:58:35.890Z,42.38
2019-01-22T13:01:01.904Z,45.05
2019-01-22T13:03:27.881Z,45.42
2019-01-22T13:05:54.622Z,44.87
2019-01-22T13:08:21.385Z,47.88
2019-01-22T13:10:47.402Z,46.55
2019-01-22T13:13:13.395Z,40.95
2019-01-22T13:15:39.418Z,39.97
2019-01-22T13:18:05.434Z,39.05
2019-01-22T13:20:31.421Z,40.08
2019-01-22T13:22:57.463Z,37.03
2019-01-22T13:25:23.483Z,32.38
2019-01-22T13:27:49.481Z,38.30
2019-01-22T13:30:16.562Z,31.50
2019-01-22T13:32:42.653Z,30.92
2019-01-22T13:35:08.685Z,28.40
2019-01-22T13:37:34.694Z,27.87
2019-01-22T13:40:00.719Z,27.83
2019-01-22T13:42:26.759Z,28.55
2019-01-22T13:44:52.772Z,27.27
2019-01-22T13:47:18.779Z,31.90
2019-01-22T13:49:45.537Z,28.02
2019-01-22T13:52:11.583Z,26.55
2019-01-22T13:54:37.674Z,29.58
2019-01-22T13:57:04.434Z,27.52
2019-01-22T13:59:30.438Z,32.00
2019-01-22T14:01:57.175Z,25.50
2019-01-22T14:04:23.918Z,30.42
2019-01-22T14:06:50.678Z,26.80
2019-01-22T14:09:16.706Z,29.10
2019-01-22T14:11:42.713Z,23.25
2019-01-22T14:14:09.580Z,25.70
2019-01-22T14:16:35.706Z,29.65
2019-01-22T14:19:01.695Z,26.70
2019-01-22T14:21:28.452Z,25.10
2019-01-22T14:23:54.479Z,25.88
2019-01-22T14:26:25.523Z,24.00
2019-01-22T14:28:46.535Z,23.08
2019-01-22T14:31:12.538Z,21.92
2019-01-22T14:33:39.317Z,21.35
2019-01-22T14:36:05.338Z,20.33
2019-01-22T14:38:31.571Z,27.35
2019-01-22T14:40:57.574Z,26.02
2019-01-22T14:43:23.613Z,19.10
2019-01-22T14:45:49.703Z,22.05
2019-01-22T14:48:16.460Z,19.58
2019-01-22T14:50:42.469Z,19.23
2019-01-22T14:53:08.488Z,23.27
2019-01-22T14:55:35.211Z,20.42
2019-01-22T14:58:01.261Z,19.35
2019-01-22T15:00:27.485Z,19.05
2019-01-22T15:02:53.528Z,21.42
2019-01-22T15:05:19.546Z,24.50
2019-01-22T15:07:45.569Z,22.20
2019-01-22T15:10:12.400Z,24.30
2019-01-22T15:12:38.416Z,24.25
2019-01-22T15:15:04.426Z,24.55
2019-01-22T15:17:30.466Z,24.40
2019-01-22T15:19:56.520Z,24.30
2019-01-22T15:22:22.550Z,23.87
2019-01-22T15:24:48.575Z,25.97
2019-01-22T15:27:14.572Z,23.52
2019-01-22T15:29:40.592Z,23.62
2019-01-22T15:32:07.363Z,29.37
2019-01-22T15:34:33.354Z,25.85
2019-01-22T15:37:01.216Z,27.07
2019-01-22T15:39:27.982Z,28.12
2019-01-22T15:41:54.015Z,24.58
2019-01-22T15:44:20.031Z,27.62
2019-01-22T15:46:46.112Z,26.77
2019-01-22T15:49:22.123Z,26.95
2019-01-22T15:51:48.163Z,28.00
2019-01-22T15:54:14.202Z,27.08
2019-01-22T15:56:46.236Z,25.17
2019-01-22T15:59:06.547Z,26.85
2019-01-22T16:01:32.570Z,25.60
2019-01-22T16:03:58.595Z,27.25
2019-01-22T16:06:24.623Z,24.40
2019-01-22T16:08:50.659Z,24.98
2019-01-22T16:11:16.818Z,31.30
2019-01-22T16:13:43.569Z,28.60
2019-01-22T16:16:10.327Z,29.08
2019-01-22T16:18:36.374Z,26.10
2019-01-22T16:21:02.395Z,26.00
2019-01-22T16:23:28.551Z,26.42
2019-01-22T16:25:54.616Z,28.23
2019-01-22T16:28:20.775Z,27.08
2019-01-22T16:30:46.803Z,28.17
2019-01-22T16:33:12.891Z,28.33
2019-01-22T16:35:38.917Z,27.37
2019-01-22T16:38:05.055Z,29.33
2019-01-22T16:40:31.086Z,29.27
2019-01-22T16:42:57.171Z,27.55
2019-01-22T16:45:25.315Z,31.17
2019-01-22T16:47:51.335Z,29.83
2019-01-22T16:50:17.425Z,30.12
2019-01-22T16:52:43.625Z,33.20
2019-01-22T16:55:09.609Z,33.40
2019-01-22T16:57:35.669Z,32.85
2019-01-22T17:00:01.681Z,33.60
2019-01-22T17:02:27.802Z,32.65
2019-01-22T17:04:53.865Z,35.42
2019-01-22T17:07:20.109Z,31.15
2019-01-22T17:09:46.179Z,30.85
2019-01-22T17:12:12.306Z,32.20
2019-01-22T17:14:38.323Z,28.98
2019-01-22T17:17:04.331Z,31.05
2019-01-22T17:19:30.535Z,26.58
2019-01-22T17:21:56.563Z,31.27
2019-01-22T17:24:24.063Z,34.90
2019-01-22T17:26:50.082Z,32.58
2019-01-22T17:29:16.215Z,29.83
2019-01-22T17:31:49.113Z,28.25
2019-01-22T17:34:16.048Z,31.92
2019-01-22T17:36:42.163Z,29.58
2019-01-22T17:39:08.318Z,32.95
2019-01-22T17:41:34.488Z,33.17
2019-01-22T17:44:00.564Z,37.38
2019-01-22T17:46:26.596Z,31.83
2019-01-22T17:48:53.513Z,34.17
2019-01-22T17:51:20.469Z,33.17
2019-01-22T17:53:46.586Z,34.10
2019-01-22T17:56:12.708Z,35.60
2019-01-22T17:58:38.718Z,35.20
2019-01-22T18:01:04.796Z,33.55
2019-01-22T18:03:30.834Z,35.75
2019-01-22T18:05:56.851Z,36.35
2019-01-22T18:08:22.877Z,36.30
2019-01-22T18:10:48.864Z,35.72
2019-01-22T18:13:15.742Z,38.70
2019-01-22T18:15:41.792Z,37.17
2019-01-22T18:18:07.834Z,34.85
2019-01-22T18:20:33.850Z,36.28
2019-01-22T18:22:59.863Z,36.42
2019-01-22T18:25:25.892Z,41.50
2019-01-22T18:27:52.060Z,32.38
2019-01-22T18:30:21.979Z,32.33
2019-01-22T18:32:48.841Z,31.23
2019-01-22T18:35:30.773Z,31.23
2019-01-22T18:37:56.818Z,32.65
2019-01-22T18:40:22.928Z,36.92
2019-01-22T18:42:49.013Z,40.97
2019-01-22T18:45:15.038Z,43.03
2019-01-22T18:47:41.101Z,37.08
2019-01-22T18:50:07.151Z,37.35
2019-01-22T18:52:33.224Z,34.95
2019-01-22T18:54:59.323Z,35.35
2019-01-22T18:57:27.596Z,40.80
2019-01-22T18:59:51.544Z,33.40
2019-01-22T19:02:18.732Z,35.88
2019-01-22T19:04:44.791Z,34.13
2019-01-22T19:07:10.815Z,32.92
2019-01-22T19:09:36.793Z,35.55
2019-01-22T19:12:17.835Z,33.47
2019-01-22T19:14:43.966Z,34.28
2019-01-22T19:17:09.993Z,33.97
2019-01-22T19:19:36.026Z,37.70
2019-01-22T19:22:02.448Z,38.85
2019-01-22T19:24:28.720Z,33.55
2019-01-22T19:26:55.572Z,37.90
2019-01-22T19:29:21.767Z,33.55
2019-01-22T19:31:47.989Z,34.10
2019-01-22T19:34:14.083Z,37.30
2019-01-22T19:36:40.871Z,32.80
2019-01-22T19:39:07.010Z,34.88
2019-01-22T19:41:33.351Z,30.92
2019-01-22T19:43:59.468Z,32.47
2019-01-22T19:46:25.575Z,35.55
2019-01-22T19:48:51.577Z,33.13
2019-01-22T19:51:17.577Z,30.27
2019-01-22T19:53:44.351Z,41.90
2019-01-22T19:56:10.416Z,35.90
2019-01-22T19:58:36.412Z,45.20
2019-01-22T20:01:02.441Z,45.92
2019-01-22T20:03:28.467Z,44.47
2019-01-22T20:05:54.586Z,43.03
2019-01-22T20:08:20.634Z,44.92
2019-01-22T20:10:46.622Z,45.20
2019-01-22T20:13:13.608Z,46.90
2019-01-22T20:15:39.641Z,47.70
2019-01-22T20:18:05.643Z,42.67
2019-01-22T20:20:31.658Z,52.30
2019-01-22T20:22:57.660Z,48.30
2019-01-22T20:25:23.679Z,46.97
2019-01-22T20:27:49.707Z,47.42
2019-01-22T20:30:21.643Z,43.67
2019-01-22T20:32:48.412Z,47.88
2019-01-22T20:35:14.398Z,38.42
2019-01-22T20:37:40.957Z,44.45
2019-01-22T20:40:09.476Z,46.65
2019-01-22T20:42:35.594Z,44.67
2019-01-22T20:45:01.699Z,49.05
2019-01-22T20:47:28.141Z,49.13
2019-01-22T20:49:54.358Z,47.83
2019-01-22T20:52:20.441Z,46.00
2019-01-22T20:54:46.569Z,44.25
2019-01-22T20:57:12.583Z,47.50
2019-01-22T20:59:38.672Z,49.45
2019-01-22T21:02:04.783Z,48.25
2019-01-22T21:04:30.779Z,44.47
2019-01-22T21:06:56.859Z,46.67
2019-01-22T21:09:22.918Z,43.08
2019-01-22T21:11:48.972Z,46.47
2019-01-22T21:14:15.729Z,44.92
2019-01-22T21:16:41.747Z,43.42
2019-01-22T21:19:07.844Z,45.55
2019-01-22T21:21:33.887Z,47.08
2019-01-22T21:23:59.967Z,49.47
2019-01-22T21:26:25.985Z,48.42
2019-01-22T21:28:51.991Z,43.78
2019-01-22T21:31:18.004Z,43.05
2019-01-22T21:33:43.999Z,40.10
2019-01-22T21:36:10.764Z,44.97
2019-01-22T21:38:36.819Z,48.35
2019-01-22T21:41:02.878Z,48.33
2019-01-22T21:43:28.902Z,44.65
2019-01-22T21:45:54.925Z,42.47
2019-01-22T21:48:20.915Z,47.78
2019-01-22T21:50:47.368Z,50.25
2019-01-22T21:53:13.653Z,47.00
2019-01-22T21:55:39.730Z,47.88
2019-01-22T21:58:08.496Z,53.97
2019-01-22T22:00:32.775Z,43.30
2019-01-22T22:02:58.859Z,44.92
2019-01-22T22:05:24.959Z,46.60
2019-01-22T22:07:51.001Z,45.75
2019-01-22T22:10:17.719Z,50.53
2019-01-22T22:12:43.793Z,49.45
2019-01-22T22:15:10.090Z,47.88
2019-01-22T22:17:36.260Z,50.42
2019-01-22T22:20:02.287Z,44.72
2019-01-22T22:22:28.332Z,44.88
2019-01-22T22:24:54.435Z,44.85
2019-01-22T22:27:20.465Z,44.83
2019-01-22T22:29:46.587Z,52.85
2019-01-22T22:32:12.798Z,50.83
2019-01-22T22:34:38.864Z,51.90
2019-01-22T22:37:05.103Z,46.85
2019-01-22T22:39:31.100Z,49.50
2019-01-22T22:41:57.147Z,45.50
2019-01-22T22:44:30.147Z,55.45
2019-01-22T22:46:56.280Z,50.30
2019-01-22T22:49:23.040Z,50.55
2019-01-22T22:51:50.453Z,53.30
2019-01-22T22:54:15.826Z,41.78
2019-01-22T22:56:41.894Z,50.17
2019-01-22T22:59:07.884Z,42.33
2019-01-22T23:01:33.929Z,48.03
2019-01-22T23:03:59.926Z,51.00
2019-01-22T23:06:25.916Z,56.53
2019-01-22T23:08:51.931Z,48.97
2019-01-22T23:11:18.692Z,51.92
2019-01-22T23:13:44.695Z,47.15
2019-01-22T23:16:10.799Z,50.92
2019-01-22T23:18:36.817Z,50.42
2019-01-22T23:21:02.800Z,49.78
2019-01-22T23:23:28.837Z,50.10
2019-01-22T23:25:54.831Z,49.88
2019-01-22T23:28:20.824Z,43.25
2019-01-22T23:30:46.892Z,52.05
2019-01-22T23:33:12.904Z,54.20
2019-01-22T23:35:38.920Z,50.10
2019-01-22T23:38:05.678Z,49.47
2019-01-22T23:40:31.677Z,48.63
2019-01-22T23:42:58.423Z,49.08
2019-01-22T23:45:25.154Z,49.00
2019-01-22T23:47:51.881Z,48.13
2019-01-22T23:50:17.891Z,46.90
2019-01-22T23:52:43.883Z,44.40
2019-01-22T23:55:09.905Z,47.78
2019-01-22T23:57:35.933Z,43.35
